WetterOnline ( https://www.wetteronline.de )

Wetter aktuell Leck

Aktuelles Wetter: Leck (17m)

6-stündlich | Neueste Meldungen
Ortszeit Temperatur Wetter
Sa, 25.05. 14:00 20.8° C leicht bewölkt
Sa, 25.05. 8:00 14.4° C leicht bewölkt
Sa, 25.05. 2:00 12.7° C wolkig
Fr, 24.05. 20:00 19.3° C leicht bewölkt
Fr, 24.05. 14:00 20.6° C fast wolkenlos
Fr, 24.05. 8:00 13.8° C wolkenlos
Fr, 24.05. 2:00 10.3° C Nebel
Do, 23.05. 20:00 15.9° C bedeckt
Ortszeit Temperatur Wetter
Sa, 25.05. 16:00 20.8° C wolkig
Sa, 25.05. 15:50 20.8° C wolkig
Sa, 25.05. 15:40 20.5° C bedeckt
Sa, 25.05. 15:30 20.9° C wolkig
Sa, 25.05. 15:20 20.9° C wolkig
Sa, 25.05. 15:10 21.0° C bewölkt
Sa, 25.05. 15:00 21.3° C leicht bewölkt
Sa, 25.05. 14:30 20.8° C wolkig
Sa, 25.05. 14:00 20.8° C leicht bewölkt
Sa, 25.05. 13:30 20.6° C wolkig
Sa, 25.05. 13:00 19.8° C bewölkt
Ortszeit Relative Feuchte Sichtweite
Sa, 25.05. 14:00 59% 55 km
Sa, 25.05. 8:00 88% 19 km
Sa, 25.05. 2:00 86% 30 km
Fr, 24.05. 20:00 61% 40 km
Fr, 24.05. 14:00 55% 28 km
Fr, 24.05. 8:00 90% 14 km
Fr, 24.05. 2:00 99% 11 km
Do, 23.05. 20:00 77% 45 km
Ortszeit Relative Feuchte Sichtweite
Sa, 25.05. 16:00 63% 50 km
Sa, 25.05. 15:50 63% -
Sa, 25.05. 15:40 62% -
Sa, 25.05. 15:30 60% >70 km
Sa, 25.05. 15:20 60% -
Sa, 25.05. 15:10 61% -
Sa, 25.05. 15:00 62% 35 km
Sa, 25.05. 14:30 62% 60 km
Sa, 25.05. 14:00 59% 55 km
Sa, 25.05. 13:30 59% 65 km
Sa, 25.05. 13:00 67% 35 km
Ortszeit Niederschlagsmenge Niederschlagsart
Sa, 25.05. 14:00 0.0 l/m2 in 6 Std. -
Sa, 25.05. 8:00 0.0 l/m2 in 12 Std. -
Sa, 25.05. 2:00 0.0 l/m2 in 6 Std. -
Fr, 24.05. 20:00 0.0 l/m2 in 12 Std. -
Fr, 24.05. 14:00 0.1 l/m2 in 6 Std. -
Fr, 24.05. 8:00 0.0 l/m2 in 12 Std. -
Fr, 24.05. 2:00 0.0 l/m2 in 6 Std. -
Do, 23.05. 20:00 3 l/m2 in 12 Std. Regen
Ortszeit Niederschlagsmenge Niederschlagsart
Sa, 25.05. 16:00 0.0 l/m2 in 1 Std. -
Sa, 25.05. 15:50 keine Meldung -
Sa, 25.05. 15:40 keine Meldung -
Sa, 25.05. 15:30 0.0 l/m2 in 30 Min -
Sa, 25.05. 15:20 keine Meldung -
Sa, 25.05. 15:10 keine Meldung -
Sa, 25.05. 15:00 0.0 l/m2 in 1 Std. -
Sa, 25.05. 14:30 0.0 l/m2 in 30 Min -
Sa, 25.05. 14:00 0.0 l/m2 in 1 Std. -
Sa, 25.05. 13:30 0.0 l/m2 in 30 Min -
Sa, 25.05. 13:00 0.0 l/m2 in 1 Std. -
Ortszeit Stärke Spitze Richtung
km/h Bft. km/h Grad Sektor
Sa, 25.05. 14:00 22 4 36 90° O
Sa, 25.05. 8:00 14 3 25 70° O
Sa, 25.05. 2:00 9 2 26 70° O
Fr, 24.05. 20:00 14 3 32 60° NO
Fr, 24.05. 14:00 7 2 14 90° O
Fr, 24.05. 8:00 9 2 11 120° SO
Fr, 24.05. 2:00 2 1 19 140° SO
Do, 23.05. 20:00 11 2 29 270° W
Ortszeit Stärke Spitze Richtung
km/h Bft. km/h Grad Sektor
Sa, 25.05. 16:00 19 3 28 100° O
Sa, 25.05. 15:50 19 3 - 100° O
Sa, 25.05. 15:40 18 3 - 110° O
Sa, 25.05. 15:30 17 3 28 90° O
Sa, 25.05. 15:20 17 3 - 90° O
Sa, 25.05. 15:10 19 3 - 100° O
Sa, 25.05. 15:00 20 4 30 90° O
Sa, 25.05. 14:30 17 3 30 110° O
Sa, 25.05. 14:00 22 4 36 90° O
Sa, 25.05. 13:30 22 4 36 90° O
Sa, 25.05. 13:00 15 3 22 90° O
Ortszeit Untergrenze Bedeckung Gattung
total tief tief mittel hoch
Sa, 25.05. 14:00 3900 m 4/8 4/8 - - -
Sa, 25.05. 8:00 300 m 5/8 1/8 - - -
Sa, 25.05. 2:00 9000 m 8/8 0/8 - - -
Fr, 24.05. 20:00 9000 m 4/8 0/8 - - -
Fr, 24.05. 14:00 1110 m 1/8 1/8 - - -
Fr, 24.05. 8:00 - 0/8 0/8 - - -
Fr, 24.05. 2:00 960 m 3/8 3/8 - - -
Do, 23.05. 20:00 660 m 8/8 8/8 - - -
Ortszeit Bedeckungsgrad in Achtel und Wolkenuntergrenze
Sa, 25.05. 16:00 2(1050m) 7(3300m) 8(3900m)
Sa, 25.05. 15:50 2(1050m) 7(3300m) 8(3900m)
Sa, 25.05. 15:40 8
Sa, 25.05. 15:30 1(1050m) 5(3300m) 8(3900m)
Sa, 25.05. 15:20 1(1050m) 5(3300m) 8(3900m)
Sa, 25.05. 15:10 7
Sa, 25.05. 15:00 1(1020m) 6(3000m) 6(3600m)
Sa, 25.05. 14:30 5(3000m) 5(4500m)
Sa, 25.05. 14:00 4(3900m)
Sa, 25.05. 13:30 1(780m) 7(3900m) 7(4500m)
Sa, 25.05. 13:00 5(810m) 8(4200m) 8(5100m)
Ortszeit Luftdruck NN (hPa) Tendenz (hPa in 3 Std.)
Sa, 25.05. 14:00 1018 - 0,7
Sa, 25.05. 8:00 1019 - 0,6
Sa, 25.05. 2:00 1020 - 0,4
Fr, 24.05. 20:00 1020 - 0,3
Fr, 24.05. 14:00 1021 - 0,3
Fr, 24.05. 8:00 1020 + 1,1
Fr, 24.05. 2:00 1018 + 1,3
Do, 23.05. 20:00 1015 + 1,0
Ortszeit Luftdruck NN (hPa) Tendenz (hPa in 3 Std.)
Sa, 25.05. 16:00 1018 - 0,6
Sa, 25.05. 15:50 1018 keine Meldung
Sa, 25.05. 15:40 1018 keine Meldung
Sa, 25.05. 15:30 1018 - 0,5
Sa, 25.05. 15:20 1018 keine Meldung
Sa, 25.05. 15:10 1018 keine Meldung
Sa, 25.05. 15:00 1018 - 0,6
Sa, 25.05. 14:30 1018 - 0,5
Sa, 25.05. 14:00 1018 - 0,7
Sa, 25.05. 13:30 1018 - 0,5
Sa, 25.05. 13:00 1018 - 0,4
Ortszeit Schneehöhe (cm)
Sa, 25.05. 14:00 0
Sa, 25.05. 8:00 0
Sa, 25.05. 2:00 0
Fr, 24.05. 20:00 0
Fr, 24.05. 14:00 0
Fr, 24.05. 8:00 0
Fr, 24.05. 2:00 0
Do, 23.05. 20:00 0
Ortszeit Schneehöhe (cm)
Sa, 25.05. 16:00 0
Sa, 25.05. 15:50 0
Sa, 25.05. 15:40 -
Sa, 25.05. 15:30 0
Sa, 25.05. 15:20 0
Sa, 25.05. 15:10 -
Sa, 25.05. 15:00 0
Sa, 25.05. 14:30 0
Sa, 25.05. 14:00 0
Sa, 25.05. 13:30 0
Sa, 25.05. 13:00 0
Link zu dieser Seite / Seite empfehlen

Das Wetter in ...